createdAt,value
2018-10-05T00:00:12.201Z,3.47
2018-10-05T00:02:40.558Z,3.70
2018-10-05T00:05:08.950Z,3.40
2018-10-05T00:07:37.343Z,3.50
2018-10-05T00:10:05.746Z,3.50
2018-10-05T00:12:34.463Z,3.00
2018-10-05T00:15:02.871Z,3.00
2018-10-05T00:17:31.175Z,3.30
2018-10-05T00:19:59.540Z,3.60
2018-10-05T00:22:27.908Z,3.80
2018-10-05T00:24:56.212Z,2.97
2018-10-05T00:27:24.548Z,3.20
2018-10-05T00:29:52.916Z,3.20
2018-10-05T00:32:21.297Z,3.17
2018-10-05T00:34:49.716Z,3.23
2018-10-05T00:37:18.129Z,3.50
2018-10-05T00:39:46.492Z,3.10
2018-10-05T00:42:14.982Z,2.87
2018-10-05T00:44:43.357Z,4.10
2018-10-05T00:47:11.753Z,3.37
2018-10-05T00:49:40.103Z,3.53
2018-10-05T00:52:08.471Z,3.00
2018-10-05T00:54:36.821Z,3.67
2018-10-05T00:57:05.176Z,3.70
2018-10-05T00:59:33.605Z,3.27
2018-10-05T01:02:02.080Z,3.53
2018-10-05T01:04:30.433Z,3.53
2018-10-05T01:06:58.891Z,3.50
2018-10-05T01:09:27.246Z,3.40
2018-10-05T01:11:55.625Z,3.67
2018-10-05T01:14:24.046Z,3.60
2018-10-05T01:16:52.375Z,3.23
2018-10-05T01:19:20.804Z,5.17
2018-10-05T01:21:49.181Z,5.37
2018-10-05T01:24:17.522Z,4.60
2018-10-05T01:26:45.950Z,3.93
2018-10-05T01:29:14.413Z,3.10
2018-10-05T01:31:42.792Z,3.10
2018-10-05T01:34:11.137Z,2.80
2018-10-05T01:36:39.568Z,3.40
2018-10-05T01:39:08.070Z,3.60
2018-10-05T01:41:36.532Z,3.17
2018-10-05T01:44:04.927Z,3.20
2018-10-05T01:46:33.244Z,2.90
2018-10-05T01:49:01.565Z,3.30
2018-10-05T01:51:36.834Z,3.13
2018-10-05T01:54:05.991Z,2.87
2018-10-05T01:56:35.059Z,2.80
2018-10-05T01:59:03.790Z,2.83
2018-10-05T02:01:32.887Z,3.33
2018-10-05T02:04:01.566Z,3.10
2018-10-05T02:06:30.049Z,3.97
2018-10-05T02:08:58.417Z,3.37
2018-10-05T02:11:26.857Z,3.20
2018-10-05T02:14:00.907Z,3.80
2018-10-05T02:16:29.283Z,3.40
2018-10-05T02:18:57.680Z,3.97
2018-10-05T02:21:26.075Z,3.60
2018-10-05T02:23:54.508Z,3.20
2018-10-05T02:26:22.937Z,2.63
2018-10-05T02:28:51.352Z,2.60
2018-10-05T02:31:19.811Z,2.90
2018-10-05T02:33:48.292Z,2.80
2018-10-05T02:36:16.727Z,3.03
2018-10-05T02:38:45.187Z,3.30
2018-10-05T02:41:13.544Z,3.17
2018-10-05T02:43:41.962Z,3.30
2018-10-05T02:46:10.429Z,3.60
2018-10-05T02:48:38.839Z,3.20
2018-10-05T02:51:07.236Z,3.73
2018-10-05T02:53:35.707Z,4.10
2018-10-05T02:56:04.226Z,4.50
2018-10-05T02:58:32.613Z,4.13
2018-10-05T03:01:12.387Z,3.70
2018-10-05T03:03:40.708Z,3.50
2018-10-05T03:06:09.180Z,4.03
2018-10-05T03:08:37.624Z,4.87
2018-10-05T03:11:06.410Z,4.77
2018-10-05T03:13:34.810Z,3.77
2018-10-05T03:16:03.242Z,4.00
2018-10-05T03:18:31.671Z,4.00
2018-10-05T03:21:00.199Z,4.13
2018-10-05T03:23:28.608Z,4.53
2018-10-05T03:25:57.111Z,4.30
2018-10-05T03:28:25.479Z,3.93
2018-10-05T03:30:53.919Z,4.27
2018-10-05T03:33:22.262Z,4.10
2018-10-05T03:35:50.763Z,5.90
2018-10-05T03:38:19.171Z,4.90
2018-10-05T03:40:47.632Z,4.87
2018-10-05T03:43:16.018Z,4.67
2018-10-05T03:45:44.458Z,4.90
2018-10-05T03:48:12.903Z,4.93
2018-10-05T03:50:41.336Z,4.70
2018-10-05T03:53:09.770Z,4.93
2018-10-05T03:55:38.161Z,4.13
2018-10-05T03:58:06.547Z,4.80
2018-10-05T04:00:34.954Z,4.47
2018-10-05T04:03:03.580Z,4.30
2018-10-05T04:05:32.050Z,3.83
2018-10-05T04:08:00.395Z,4.23
2018-10-05T04:10:28.735Z,4.60
2018-10-05T04:12:57.095Z,4.03
2018-10-05T04:15:25.484Z,3.70
2018-10-05T04:17:53.875Z,5.83
2018-10-05T04:20:22.321Z,4.80
2018-10-05T04:22:50.801Z,4.90
2018-10-05T04:25:19.193Z,4.90
2018-10-05T04:27:47.647Z,4.33
2018-10-05T04:30:16.004Z,4.80
2018-10-05T04:32:44.445Z,4.33
2018-10-05T04:35:12.845Z,4.07
2018-10-05T04:37:41.220Z,4.30
2018-10-05T04:40:09.676Z,5.00
2018-10-05T04:42:38.116Z,4.70
2018-10-05T04:45:06.527Z,4.23
2018-10-05T04:47:35.009Z,3.60
2018-10-05T04:50:03.443Z,4.20
2018-10-05T04:52:31.822Z,3.53
2018-10-05T04:55:00.184Z,4.10
2018-10-05T04:57:28.607Z,3.17
2018-10-05T04:59:56.952Z,3.30
2018-10-05T05:02:25.280Z,3.40
2018-10-05T05:04:53.716Z,3.37
2018-10-05T05:07:22.616Z,3.40
2018-10-05T05:09:51.033Z,3.50
2018-10-05T05:12:19.494Z,3.60
2018-10-05T05:14:47.843Z,3.50
2018-10-05T05:17:16.221Z,5.03
2018-10-05T05:19:44.617Z,5.47
2018-10-05T05:22:12.937Z,4.27
2018-10-05T05:24:41.264Z,4.70
2018-10-05T05:27:09.603Z,4.20
2018-10-05T05:29:38.006Z,4.93
2018-10-05T05:32:06.382Z,4.70
2018-10-05T05:34:34.807Z,4.00
2018-10-05T05:37:03.135Z,3.60
2018-10-05T05:39:31.523Z,3.97
2018-10-05T05:41:59.924Z,3.77
2018-10-05T05:44:28.304Z,4.70
2018-10-05T05:46:56.766Z,4.23
2018-10-05T05:49:25.071Z,3.90
2018-10-05T05:51:53.507Z,3.83
2018-10-05T05:54:21.949Z,3.77
2018-10-05T05:56:50.264Z,3.43
2018-10-05T05:59:18.656Z,3.40
2018-10-05T06:01:47.018Z,2.90
2018-10-05T06:04:15.369Z,3.20
2018-10-05T06:06:43.730Z,3.53
2018-10-05T06:09:12.084Z,2.67
2018-10-05T06:11:40.420Z,3.23
2018-10-05T06:14:08.845Z,3.23
2018-10-05T06:16:37.233Z,3.10
2018-10-05T06:19:09.500Z,3.00
2018-10-05T06:21:37.940Z,3.30
2018-10-05T06:24:18.213Z,3.10
2018-10-05T06:26:46.619Z,3.20
2018-10-05T06:29:14.956Z,3.33
2018-10-05T06:31:43.329Z,3.37
2018-10-05T06:34:11.662Z,3.43
2018-10-05T06:36:40.080Z,3.40
2018-10-05T06:39:09.490Z,3.30
2018-10-05T06:41:37.919Z,3.20
2018-10-05T06:44:06.284Z,3.80
2018-10-05T06:46:34.623Z,2.80
2018-10-05T06:49:03.048Z,2.83
2018-10-05T06:51:31.475Z,2.30
2018-10-05T06:54:05.523Z,2.00
2018-10-05T06:56:33.856Z,2.10
2018-10-05T06:59:02.237Z,2.70
2018-10-05T07:01:30.736Z,2.53
2018-10-05T07:03:59.048Z,2.80
2018-10-05T07:06:27.392Z,3.20
2018-10-05T07:08:55.860Z,2.50
2018-10-05T07:11:24.344Z,2.63
2018-10-05T07:13:52.803Z,2.63
2018-10-05T07:16:21.318Z,2.07
2018-10-05T07:18:49.653Z,2.70
2018-10-05T07:21:18.157Z,2.90
2018-10-05T07:23:46.603Z,2.97
2018-10-05T07:26:14.943Z,2.63
2018-10-05T07:28:43.385Z,2.90
2018-10-05T07:31:11.749Z,2.93
2018-10-05T07:33:40.093Z,2.80
2018-10-05T07:36:08.456Z,2.47
2018-10-05T07:38:36.770Z,2.10
2018-10-05T07:41:05.132Z,2.40
2018-10-05T07:43:33.541Z,2.33
2018-10-05T07:46:01.920Z,2.57
2018-10-05T07:48:30.279Z,2.60
2018-10-05T07:50:59.729Z,2.60
2018-10-05T07:53:29.042Z,2.43
2018-10-05T07:55:57.435Z,2.87
2018-10-05T07:58:25.808Z,2.70
2018-10-05T08:00:54.128Z,3.33
2018-10-05T08:03:22.539Z,2.95
2018-10-05T08:05:50.963Z,4.20
2018-10-05T08:08:19.241Z,2.90
2018-10-05T08:10:47.535Z,2.50
2018-10-05T08:13:15.811Z,5.12
2018-10-05T08:15:44.243Z,4.72
2018-10-05T08:18:12.564Z,3.50
2018-10-05T08:20:40.892Z,3.33
2018-10-05T08:23:09.277Z,3.00
2018-10-05T08:25:37.630Z,2.70
2018-10-05T08:28:06.025Z,3.80
2018-10-05T08:30:34.377Z,3.95
2018-10-05T08:33:02.732Z,4.20
2018-10-05T08:35:31.180Z,3.52
2018-10-05T08:37:59.615Z,3.98
2018-10-05T08:40:27.948Z,3.52
2018-10-05T08:42:56.287Z,3.30
2018-10-05T08:45:24.671Z,3.52
2018-10-05T08:47:53.024Z,4.00
2018-10-05T08:50:21.377Z,3.30
2018-10-05T08:52:49.718Z,3.00
2018-10-05T08:55:18.122Z,3.23
2018-10-05T08:57:46.493Z,2.90
2018-10-05T09:00:14.931Z,2.90
2018-10-05T09:02:43.187Z,2.90
2018-10-05T09:05:11.584Z,3.07
2018-10-05T09:07:39.991Z,2.87
2018-10-05T09:10:08.369Z,2.80
2018-10-05T09:12:36.735Z,2.90
2018-10-05T09:15:05.128Z,2.43
2018-10-05T09:17:33.521Z,2.70
2018-10-05T09:20:01.905Z,2.90
2018-10-05T09:22:30.256Z,2.70
2018-10-05T09:24:58.581Z,2.53
2018-10-05T09:27:26.876Z,2.73
2018-10-05T09:29:55.232Z,2.90
2018-10-05T09:32:23.558Z,3.20
2018-10-05T09:34:51.913Z,2.63
2018-10-05T09:37:20.468Z,2.67
2018-10-05T09:39:48.821Z,2.30
2018-10-05T09:42:17.193Z,2.83
2018-10-05T09:44:45.574Z,2.50
2018-10-05T09:47:13.929Z,2.63
2018-10-05T09:49:42.260Z,2.40
2018-10-05T09:52:10.861Z,2.10
2018-10-05T09:54:39.012Z,2.30
2018-10-05T09:57:07.454Z,1.90
2018-10-05T09:59:35.820Z,2.00
2018-10-05T10:02:09.543Z,2.03
2018-10-05T10:04:37.852Z,2.40
2018-10-05T10:07:06.172Z,2.00
2018-10-05T10:09:34.504Z,2.03
2018-10-05T10:12:02.935Z,2.70
2018-10-05T10:14:31.276Z,2.13
2018-10-05T10:16:59.706Z,2.00
2018-10-05T10:19:28.088Z,1.97
2018-10-05T10:21:56.460Z,1.90
2018-10-05T10:24:24.803Z,1.70
2018-10-05T10:26:53.107Z,1.80
2018-10-05T10:29:21.467Z,1.73
2018-10-05T10:31:51.891Z,2.07
2018-10-05T10:34:20.311Z,1.93
2018-10-05T10:36:48.763Z,2.10
2018-10-05T10:39:17.107Z,2.00
2018-10-05T10:41:45.532Z,2.13
2018-10-05T10:44:13.907Z,2.23
2018-10-05T10:46:42.312Z,2.20
2018-10-05T10:49:10.704Z,1.90
2018-10-05T10:51:39.075Z,2.20
2018-10-05T10:54:07.528Z,2.00
2018-10-05T10:56:35.815Z,2.00
2018-10-05T10:59:04.179Z,1.53
2018-10-05T11:01:32.559Z,1.87
2018-10-05T11:04:01.037Z,1.97
2018-10-05T11:06:29.312Z,2.20
2018-10-05T11:08:57.763Z,1.90
2018-10-05T11:11:26.177Z,1.63
2018-10-05T11:13:54.487Z,1.73
2018-10-05T11:16:22.848Z,1.83
2018-10-05T11:18:51.264Z,1.93
2018-10-05T11:21:19.531Z,2.20
2018-10-05T11:23:47.860Z,2.30
2018-10-05T11:26:16.274Z,2.00
2018-10-05T11:28:44.616Z,2.23
2018-10-05T11:31:12.916Z,2.00
2018-10-05T11:33:41.356Z,2.00
2018-10-05T11:36:09.747Z,2.10
2018-10-05T11:38:38.117Z,2.00
2018-10-05T11:41:06.978Z,2.50
2018-10-05T11:43:35.443Z,2.40
2018-10-05T11:46:03.851Z,1.93
2018-10-05T11:48:32.282Z,2.00
2018-10-05T11:51:00.753Z,2.20
2018-10-05T11:53:29.107Z,2.00
2018-10-05T11:55:57.477Z,2.20
2018-10-05T11:58:25.891Z,2.10
2018-10-05T12:00:54.261Z,2.40
2018-10-05T12:03:22.884Z,2.50
2018-10-05T12:05:51.637Z,2.30
2018-10-05T12:08:20.026Z,2.70
2018-10-05T12:10:48.378Z,2.07
2018-10-05T12:13:16.716Z,2.20
2018-10-05T12:15:45.156Z,2.30
2018-10-05T12:18:13.495Z,2.17
2018-10-05T12:20:41.890Z,2.00
2018-10-05T12:23:10.206Z,1.67
2018-10-05T12:25:38.528Z,1.97
2018-10-05T12:28:06.928Z,1.80
2018-10-05T12:30:35.292Z,2.00
2018-10-05T12:33:03.662Z,2.00
2018-10-05T12:35:32.029Z,1.87
2018-10-05T12:38:02.043Z,2.20
2018-10-05T12:40:30.460Z,2.13
2018-10-05T12:42:59.445Z,1.90
2018-10-05T12:45:28.527Z,2.30
2018-10-05T12:47:56.916Z,2.10
2018-10-05T12:50:32.383Z,2.30
2018-10-05T12:53:01.000Z,1.90
2018-10-05T12:55:33.421Z,1.90
2018-10-05T12:58:02.000Z,2.23
2018-10-05T13:00:30.373Z,2.07
2018-10-05T13:03:00.540Z,1.80
2018-10-05T13:05:30.192Z,2.20
2018-10-05T13:07:58.588Z,2.10
2018-10-05T13:10:27.187Z,2.50
2018-10-05T13:12:56.113Z,2.00
2018-10-05T13:15:24.659Z,2.00
2018-10-05T13:17:58.344Z,2.27
2018-10-05T13:20:27.003Z,1.90
2018-10-05T13:22:56.603Z,2.00
2018-10-05T13:25:24.940Z,3.20
2018-10-05T13:27:54.227Z,2.50
2018-10-05T13:30:22.623Z,2.40
2018-10-05T13:32:51.026Z,2.00
2018-10-05T13:35:20.077Z,2.10
2018-10-05T13:37:48.840Z,1.90
2018-10-05T13:40:17.278Z,2.23
2018-10-05T13:42:45.780Z,2.00
2018-10-05T13:45:14.246Z,2.47
2018-10-05T13:47:43.424Z,2.20
2018-10-05T13:52:52.892Z,1.80
2018-10-05T13:55:21.377Z,2.20
2018-10-05T13:57:50.355Z,2.13
2018-10-05T14:03:16.673Z,1.87
2018-10-05T14:05:45.800Z,2.30
2018-10-05T14:08:14.194Z,2.27
2018-10-05T14:10:43.170Z,3.70
2018-10-05T14:13:13.068Z,2.40
2018-10-05T14:15:41.477Z,2.07
2018-10-05T14:18:11.190Z,2.50
2018-10-05T14:20:40.052Z,2.40
2018-10-05T14:23:08.680Z,2.37
2018-10-05T14:28:16.074Z,2.40
2018-10-05T14:30:45.116Z,2.30
2018-10-05T14:33:13.316Z,2.47
2018-10-05T14:35:43.163Z,2.40
2018-10-05T14:38:11.768Z,2.53
2018-10-05T14:40:40.217Z,2.50
2018-10-05T14:43:08.865Z,2.40
2018-10-05T14:45:37.260Z,2.67
2018-10-05T14:48:05.773Z,2.43
2018-10-05T14:50:34.179Z,2.60
2018-10-05T14:53:03.015Z,2.57
2018-10-05T14:55:31.428Z,2.30
2018-10-05T14:57:59.871Z,2.43
2018-10-05T15:00:29.067Z,2.27
2018-10-05T15:02:57.568Z,2.30
2018-10-05T15:05:25.989Z,2.10
2018-10-05T15:07:54.464Z,2.13
2018-10-05T15:10:23.591Z,2.57
2018-10-05T15:12:52.062Z,2.77
2018-10-05T15:15:20.446Z,2.07
2018-10-05T15:17:48.869Z,2.40
2018-10-05T15:20:17.295Z,2.40
2018-10-05T15:22:45.740Z,2.50
2018-10-05T15:25:14.189Z,2.60
2018-10-05T15:27:42.933Z,2.50
2018-10-05T15:30:11.395Z,2.80
2018-10-05T15:32:39.766Z,2.93
2018-10-05T15:35:08.431Z,2.20
2018-10-05T15:37:36.824Z,2.40
2018-10-05T15:40:05.465Z,2.67
2018-10-05T15:42:33.882Z,2.30
2018-10-05T15:45:02.311Z,2.70
2018-10-05T15:47:30.902Z,3.23
2018-10-05T15:49:59.521Z,2.80
2018-10-05T15:52:28.000Z,2.50
2018-10-05T15:55:03.127Z,2.60
2018-10-05T15:57:31.789Z,3.20
2018-10-05T16:00:00.283Z,2.93
2018-10-05T16:02:28.744Z,2.77
2018-10-05T16:04:57.855Z,3.47
2018-10-05T16:07:26.341Z,14.37
2018-10-05T16:09:54.817Z,9.10
2018-10-05T16:12:24.259Z,3.97
2018-10-05T16:17:31.362Z,9.57
2018-10-05T16:19:59.953Z,8.13
2018-10-05T16:22:28.652Z,15.17
2018-10-05T16:24:57.801Z,29.60
2018-10-05T16:27:26.275Z,25.00
2018-10-05T16:29:54.657Z,17.10
2018-10-05T16:32:23.080Z,20.60
2018-10-05T16:34:52.386Z,25.47
2018-10-05T16:37:20.993Z,22.57
2018-10-05T16:39:50.540Z,16.10
2018-10-05T16:42:18.936Z,12.73
2018-10-05T16:44:48.127Z,13.03
2018-10-05T16:47:29.692Z,11.77
2018-10-05T16:49:58.299Z,10.57
2018-10-05T16:52:29.117Z,8.80
2018-10-05T16:54:58.317Z,10.20
2018-10-05T16:57:27.114Z,8.90
2018-10-05T16:59:55.527Z,8.07
2018-10-05T17:02:24.070Z,8.53
2018-10-05T17:04:52.524Z,14.07
2018-10-05T17:07:20.947Z,25.00
2018-10-05T17:09:49.409Z,12.80
2018-10-05T17:12:18.296Z,12.40
2018-10-05T17:14:46.758Z,8.50
2018-10-05T17:17:15.722Z,6.30
2018-10-05T17:19:44.623Z,5.10
2018-10-05T17:22:13.050Z,9.07
2018-10-05T17:24:41.707Z,21.27
2018-10-05T17:27:10.181Z,22.63
2018-10-05T17:29:38.605Z,20.87
2018-10-05T17:32:07.185Z,23.40
2018-10-05T17:34:35.645Z,21.20
2018-10-05T17:37:04.052Z,20.13
2018-10-05T17:39:33.576Z,17.93
2018-10-05T17:42:02.029Z,19.20
2018-10-05T17:44:30.389Z,15.73
2018-10-05T17:46:58.776Z,9.27
2018-10-05T17:49:27.568Z,7.93
2018-10-05T17:51:56.518Z,6.87
2018-10-05T17:54:25.800Z,8.10
2018-10-05T17:56:54.252Z,7.73
2018-10-05T17:59:22.935Z,6.20
2018-10-05T18:04:29.249Z,4.87
2018-10-05T18:06:57.699Z,5.43
2018-10-05T18:09:28.025Z,4.87
2018-10-05T18:11:56.517Z,7.50
2018-10-05T18:14:24.918Z,7.90
2018-10-05T18:16:54.444Z,8.80
2018-10-05T18:19:23.043Z,7.83
2018-10-05T18:21:51.485Z,9.03
2018-10-05T18:24:19.908Z,9.20
2018-10-05T18:26:49.697Z,24.70
2018-10-05T18:29:18.159Z,23.70
2018-10-05T18:31:46.635Z,15.50
2018-10-05T18:34:15.141Z,21.53
2018-10-05T18:36:43.596Z,13.17
2018-10-05T18:39:12.178Z,12.20
2018-10-05T18:41:41.158Z,9.43
2018-10-05T18:44:10.080Z,8.10
2018-10-05T18:46:38.492Z,8.87
2018-10-05T18:49:14.344Z,7.57
2018-10-05T18:51:43.053Z,8.33
2018-10-05T18:54:12.361Z,9.37
2018-10-05T18:56:52.472Z,10.30
2018-10-05T18:59:20.911Z,11.83
2018-10-05T19:01:49.256Z,10.93
2018-10-05T19:04:17.860Z,9.07
2018-10-05T19:06:46.498Z,8.83
2018-10-05T19:11:52.499Z,27.00
2018-10-05T19:14:22.833Z,33.17
2018-10-05T19:16:51.348Z,36.47
2018-10-05T19:19:19.765Z,24.20
2018-10-05T19:21:48.435Z,26.27
2018-10-05T19:24:16.953Z,25.93
2018-10-05T19:26:45.514Z,23.63
2018-10-05T19:29:13.901Z,27.07
2018-10-05T19:34:18.920Z,22.93
2018-10-05T19:36:47.378Z,23.23
2018-10-05T19:41:54.113Z,13.97
2018-10-05T19:44:26.921Z,14.23
2018-10-05T19:46:55.331Z,16.83
2018-10-05T19:52:05.806Z,10.90
2018-10-05T19:54:33.995Z,9.43
2018-10-05T19:57:02.336Z,8.67
2018-10-05T19:59:30.533Z,7.77
2018-10-05T20:01:59.411Z,6.30
2018-10-05T20:04:28.100Z,5.50
2018-10-05T20:06:56.552Z,5.80
2018-10-05T20:09:25.013Z,5.73
2018-10-05T20:11:53.446Z,5.30
2018-10-05T20:14:22.093Z,5.60
2018-10-05T20:16:50.725Z,5.37
2018-10-05T20:19:19.181Z,4.70
2018-10-05T20:24:27.857Z,4.53
2018-10-05T20:26:56.324Z,4.50
2018-10-05T20:29:24.744Z,5.23
2018-10-05T20:31:53.544Z,4.70
2018-10-05T20:34:22.016Z,5.80
2018-10-05T20:36:51.151Z,6.40
2018-10-05T20:39:19.407Z,6.03
2018-10-05T20:41:50.537Z,5.27
2018-10-05T20:44:19.639Z,5.17
2018-10-05T20:46:48.320Z,5.80
2018-10-05T20:49:17.435Z,8.63
2018-10-05T20:51:46.117Z,8.77
2018-10-05T20:54:16.053Z,8.00
2018-10-05T20:56:44.903Z,6.80
2018-10-05T20:59:14.025Z,7.00
2018-10-05T21:01:42.704Z,5.57
2018-10-05T21:06:48.100Z,6.37
2018-10-05T21:09:16.566Z,7.17
2018-10-05T21:11:45.200Z,6.27
2018-10-05T21:14:14.172Z,6.53
2018-10-05T21:16:42.869Z,5.43
2018-10-05T21:19:11.487Z,5.93
2018-10-05T21:21:40.074Z,5.60
2018-10-05T21:27:04.883Z,6.53
2018-10-05T21:29:33.729Z,5.90
2018-10-05T21:32:02.529Z,5.67
2018-10-05T21:34:31.159Z,5.33
2018-10-05T21:36:59.537Z,5.70
2018-10-05T21:39:28.396Z,5.10
2018-10-05T21:41:56.839Z,4.80
2018-10-05T21:44:25.616Z,5.03
2018-10-05T21:46:54.105Z,5.03
2018-10-05T21:49:22.612Z,6.73
2018-10-05T21:51:51.313Z,10.87
2018-10-05T21:54:20.084Z,33.20
2018-10-05T21:56:48.569Z,21.90
2018-10-05T21:59:17.046Z,19.53
2018-10-05T22:01:45.519Z,17.47
2018-10-05T22:04:15.389Z,24.20
2018-10-05T22:06:43.792Z,19.50
2018-10-05T22:09:12.780Z,17.83
2018-10-05T22:11:41.506Z,15.47
2018-10-05T22:14:10.845Z,11.90
2018-10-05T22:16:39.279Z,11.13
2018-10-05T22:19:07.922Z,9.43
2018-10-05T22:21:36.612Z,7.63
2018-10-05T22:24:05.804Z,5.57
2018-10-05T22:26:35.088Z,5.40
2018-10-05T22:31:40.861Z,5.57
2018-10-05T22:34:09.971Z,5.70
2018-10-05T22:36:38.486Z,5.07
2018-10-05T22:39:07.717Z,4.97
2018-10-05T22:41:36.445Z,5.03
2018-10-05T22:44:04.800Z,5.67
2018-10-05T22:46:33.245Z,5.83
2018-10-05T22:49:01.755Z,6.97
2018-10-05T22:51:30.483Z,5.90
2018-10-05T22:53:59.509Z,5.73
2018-10-05T22:56:28.544Z,5.57
2018-10-05T22:58:57.131Z,5.97
2018-10-05T23:01:25.581Z,5.40
2018-10-05T23:03:54.495Z,5.27
2018-10-05T23:06:22.985Z,5.07
2018-10-05T23:08:51.389Z,4.67
2018-10-05T23:11:19.864Z,4.50
2018-10-05T23:13:48.321Z,4.60
2018-10-05T23:16:16.984Z,4.67
2018-10-05T23:18:45.533Z,4.47
2018-10-05T23:21:13.907Z,4.97
2018-10-05T23:23:42.933Z,4.83
2018-10-05T23:26:11.322Z,4.73
2018-10-05T23:28:40.587Z,4.73
2018-10-05T23:31:09.041Z,4.63
2018-10-05T23:33:38.096Z,4.53
2018-10-05T23:36:06.541Z,4.83
2018-10-05T23:38:36.550Z,4.90
2018-10-05T23:41:04.967Z,4.30
2018-10-05T23:43:33.746Z,4.37
2018-10-05T23:46:02.499Z,5.03
2018-10-05T23:48:30.939Z,5.13
2018-10-05T23:51:00.032Z,4.27
2018-10-05T23:53:28.392Z,4.40
2018-10-05T23:55:56.985Z,4.20
2018-10-05T23:58:25.836Z,4.70
